Time;durP1;ratioP1;P1;durP2;ratioP2;P2;SDS_P1;SDS_P2;PMS_P1;PMS_P2;Temp;Humidity;BMP_temperature;BMP_pressure;BME280_temperature;BME280_humidity;BME280_pressure;Samples;Min_cycle;Max_cycle;Signal;HPM_P1;HPM_P2
2022/03/06 00:02:25;;;;;;;7.40;4.93;;;-4.70;99.60;-5.60;98615.00;;;;4939862;28;87273;-59
2022/03/06 00:05:13;;;;;;;7.25;4.70;;;-4.70;99.80;-5.60;98620.00;;;;4938992;28;87662;-60
2022/03/06 00:07:43;;;;;;;6.80;5.03;;;-4.80;99.90;-5.60;98618.00;;;;4940922;28;88767;-60
2022/03/06 00:10:16;;;;;;;6.30;4.53;;;-4.70;99.90;-5.50;98634.00;;;;4942570;28;86936;-62
2022/03/06 00:12:58;;;;;;;7.97;4.80;;;-4.70;99.90;-5.60;98611.00;;;;4942082;28;86292;-61
2022/03/06 00:15:35;;;;;;;6.53;4.65;;;-4.80;99.90;-5.60;98606.00;;;;4941831;28;90268;-61
2022/03/06 00:18:09;;;;;;;6.82;5.13;;;-4.80;99.90;-5.70;98621.00;;;;4941261;28;88795;-62
2022/03/06 00:20:43;;;;;;;7.32;4.90;;;-4.90;99.90;-5.70;98609.00;;;;4943971;28;87994;-62
2022/03/06 00:23:33;;;;;;;6.45;4.95;;;-4.90;99.90;-5.80;98628.00;;;;4940938;28;87434;-60
2022/03/06 00:26:18;;;;;;;9.40;5.18;;;-5.00;99.90;-5.80;98601.00;;;;4940712;28;89669;-59
2022/03/06 00:29:07;;;;;;;7.78;5.10;;;-5.00;99.90;-5.90;98607.00;;;;4940554;28;87489;-60
2022/03/06 00:32:14;;;;;;;8.60;4.88;;;-5.10;99.90;-6.00;98614.00;;;;4936085;28;87087;-60
2022/03/06 00:34:59;;;;;;;6.85;5.03;;;-5.10;99.90;-6.00;98613.00;;;;4941220;28;88234;-61
2022/03/06 00:37:38;;;;;;;8.32;5.25;;;-5.10;99.90;-6.00;98618.00;;;;4940875;28;87012;-60
2022/03/06 00:41:05;;;;;;;8.43;5.40;;;-5.20;99.90;-6.10;98617.00;;;;4939961;28;89060;-60
2022/03/06 00:44:42;;;;;;;8.43;5.60;;;-5.20;99.90;-6.10;98612.00;;;;4936630;28;87181;-60
2022/03/06 00:48:10;;;;;;;7.82;5.00;;;-5.30;99.90;-6.10;98605.00;;;;4936478;28;87306;-60
2022/03/06 00:51:17;;;;;;;6.82;5.45;;;-5.30;99.90;-6.20;98593.00;;;;4937711;28;89784;-60
2022/03/06 00:54:23;;;;;;;7.05;5.20;;;-5.30;99.90;-6.20;98593.00;;;;4938549;28;90467;-60
2022/03/06 00:57:08;;;;;;;7.53;5.38;;;-5.40;99.90;-6.30;98607.00;;;;4936441;28;87378;-61
2022/03/06 01:00:14;;;;;;;9.43;5.18;;;-5.40;99.90;-6.30;98604.00;;;;4935050;28;88091;-60
2022/03/06 01:06:55;;;;;;;7.18;5.35;;;-5.40;99.90;-6.30;98593.00;;;;4935955;28;87127;-61
2022/03/06 01:09:48;;;;;;;10.63;5.55;;;-5.50;99.90;-6.40;98595.00;;;;4936709;28;88191;-67
2022/03/06 01:12:14;;;;;;;8.73;5.38;;;-5.50;99.90;-6.40;98586.00;;;;4938559;28;86445;-68
2022/03/06 01:14:40;;;;;;;8.38;6.10;;;-5.50;99.90;-6.50;98587.00;;;;4938445;28;87811;-69
2022/03/06 01:17:06;;;;;;;7.82;5.25;;;-5.60;99.90;-6.50;98585.00;;;;4940126;28;87045;-68
2022/03/06 01:19:32;;;;;;;8.95;5.80;;;-5.60;99.90;-6.50;98583.00;;;;4941030;28;87972;-69
2022/03/06 01:21:58;;;;;;;7.22;5.75;;;-5.60;99.90;-6.50;98580.00;;;;4939460;28;87045;-68
2022/03/06 01:24:24;;;;;;;7.35;5.72;;;-5.60;99.90;-6.60;98579.00;;;;4939505;28;88312;-68
2022/03/06 01:26:50;;;;;;;7.38;5.60;;;-5.70;99.90;-6.70;98588.00;;;;4939673;28;90171;-69
2022/03/06 01:29:18;;;;;;;8.68;5.93;;;-5.80;99.90;-6.70;98581.00;;;;4940170;28;89183;-68
2022/03/06 01:31:45;;;;;;;8.10;6.03;;;-5.80;99.90;-6.70;98585.00;;;;4924387;28;87230;-68
2022/03/06 01:34:11;;;;;;;8.13;5.68;;;-5.80;99.90;-6.70;98581.00;;;;4940166;28;87855;-68
2022/03/06 01:36:37;;;;;;;8.75;6.00;;;-5.80;99.90;-6.70;98576.00;;;;4938833;28;87345;-68
2022/03/06 01:39:03;;;;;;;7.22;5.57;;;-5.90;99.90;-6.80;98579.00;;;;4941031;28;87272;-67
2022/03/06 01:41:34;;;;;;;6.97;5.68;;;-5.90;99.90;-6.80;98572.00;;;;4942897;28;87052;-61
2022/03/06 01:44:01;;;;;;;7.75;5.75;;;-5.90;99.90;-6.80;98579.00;;;;4938449;28;88160;-67
2022/03/06 01:46:27;;;;;;;10.25;5.80;;;-6.00;99.90;-6.80;98569.00;;;;4940293;28;88860;-66
2022/03/06 01:48:53;;;;;;;7.80;5.50;;;-5.90;99.90;-6.90;98578.00;;;;4939156;28;87534;-67
2022/03/06 01:51:19;;;;;;;7.68;5.50;;;-6.00;99.90;-6.80;98590.00;;;;4938405;28;86971;-67
2022/03/06 01:53:45;;;;;;;9.23;6.10;;;-5.90;99.90;-6.80;98591.00;;;;4939969;28;87664;-67
2022/03/06 01:56:13;;;;;;;7.32;5.65;;;-6.00;99.90;-6.90;98590.00;;;;4940619;28;87146;-61
2022/03/06 01:58:41;;;;;;;10.60;6.90;;;-6.00;99.90;-6.90;98587.00;;;;4938586;28;87023;-60
2022/03/06 02:01:08;;;;;;;8.13;6.10;;;-6.00;99.90;-6.80;98585.00;;;;4939598;28;86330;-61
2022/03/06 02:03:35;;;;;;;8.70;6.03;;;-6.00;99.90;-6.80;98573.00;;;;4939880;28;87760;-61
2022/03/06 02:06:01;;;;;;;9.60;6.28;;;-6.00;99.90;-6.90;98579.00;;;;4940770;28;87586;-61
2022/03/06 02:08:27;;;;;;;11.32;6.55;;;-6.00;99.90;-6.90;98579.00;;;;4940300;28;87951;-61
2022/03/06 02:10:54;;;;;;;7.82;5.57;;;-6.10;99.90;-6.90;98574.00;;;;4941341;28;87337;-61
2022/03/06 02:13:21;;;;;;;7.97;5.75;;;-6.00;99.90;-6.90;98571.00;;;;4939233;28;87925;-61
2022/03/06 02:15:47;;;;;;;8.23;6.28;;;-6.10;99.90;-7.00;98576.00;;;;4940168;28;87964;-68
2022/03/06 02:18:13;;;;;;;8.43;6.03;;;-6.10;99.90;-7.00;98576.00;;;;4938652;28;87097;-67
2022/03/06 02:20:39;;;;;;;8.45;6.35;;;-6.10;99.90;-7.00;98567.00;;;;4938439;28;87126;-68
2022/03/06 02:23:06;;;;;;;7.78;6.00;;;-6.20;99.90;-7.00;98562.00;;;;4938695;28;89248;-68
2022/03/06 02:25:35;;;;;;;7.85;5.88;;;-6.10;99.90;-7.10;98556.00;;;;4943935;28;87869;-68
2022/03/06 02:28:06;;;;;;;6.75;5.75;;;-6.20;99.90;-7.10;98562.00;;;;4943072;28;86944;-61
2022/03/06 02:30:37;;;;;;;9.15;5.75;;;-6.20;99.90;-7.10;98557.00;;;;4944247;28;87373;-61
2022/03/06 02:33:07;;;;;;;8.75;6.32;;;-6.20;99.90;-7.10;98557.00;;;;4939939;28;88885;-61
2022/03/06 02:35:36;;;;;;;7.00;5.85;;;-6.20;99.90;-7.10;98551.00;;;;4942936;28;89005;-61
2022/03/06 02:38:04;;;;;;;7.95;6.15;;;-6.20;99.90;-7.10;98556.00;;;;4939923;28;87983;-61
2022/03/06 02:40:37;;;;;;;8.50;5.90;;;-6.20;99.90;-7.10;98551.00;;;;4943690;28;88114;-61
2022/03/06 02:43:03;;;;;;;7.75;6.35;;;-6.20;99.90;-7.10;98547.00;;;;4940896;28;88843;-61
2022/03/06 02:45:29;;;;;;;7.05;5.63;;;-6.20;99.90;-7.10;98542.00;;;;4943668;28;87350;-61
2022/03/06 02:47:57;;;;;;;7.97;6.40;;;-6.20;99.90;-7.20;98542.00;;;;4943326;28;87345;-61
2022/03/06 02:50:30;;;;;;;8.77;6.22;;;-6.30;99.90;-7.30;98547.00;;;;4910144;28;86313;-61
2022/03/06 02:52:58;;;;;;;8.65;6.68;;;-6.30;99.90;-7.30;98548.00;;;;4942588;28;88208;-60
2022/03/06 02:55:25;;;;;;;7.60;6.10;;;-6.40;99.90;-7.30;98549.00;;;;4942919;28;87812;-61
2022/03/06 02:57:52;;;;;;;9.13;6.97;;;-6.40;99.90;-7.30;98555.00;;;;4942698;28;88243;-60
2022/03/06 03:00:20;;;;;;;7.97;6.78;;;-6.40;99.90;-7.30;98534.00;;;;4943057;28;86945;-60
2022/03/06 03:02:48;;;;;;;9.55;6.93;;;-6.40;99.90;-7.30;98546.00;;;;4942693;28;87928;-60
2022/03/06 03:05:16;;;;;;;8.57;6.75;;;-6.30;99.90;-7.20;98549.00;;;;4939150;28;88795;-60
2022/03/06 03:07:45;;;;;;;8.68;6.60;;;-6.30;99.90;-7.20;98552.00;;;;4941345;28;87009;-60
2022/03/06 03:10:14;;;;;;;9.40;6.72;;;-6.30;99.90;-7.20;98552.00;;;;4942846;28;87127;-60
2022/03/06 03:12:41;;;;;;;8.85;7.28;;;-6.30;99.90;-7.20;98542.00;;;;4942713;28;88528;-60
2022/03/06 03:15:10;;;;;;;9.13;7.18;;;-6.30;99.90;-7.30;98544.00;;;;4942749;28;87489;-68
2022/03/06 03:17:37;;;;;;;11.23;7.03;;;-6.40;99.90;-7.30;98538.00;;;;4925898;28;87031;-66
2022/03/06 03:20:05;;;;;;;9.38;6.57;;;-6.40;99.90;-7.30;98542.00;;;;4943708;28;87017;-68
2022/03/06 03:22:31;;;;;;;12.05;7.32;;;-6.30;99.90;-7.30;98530.00;;;;4941855;28;89135;-68
2022/03/06 03:24:57;;;;;;;11.15;7.68;;;-6.40;99.90;-7.30;98551.00;;;;4941513;28;88371;-67
2022/03/06 03:27:24;;;;;;;13.15;7.68;;;-6.50;99.90;-7.40;98544.00;;;;4942033;28;87496;-68
2022/03/06 03:29:50;;;;;;;11.88;7.60;;;-6.50;99.90;-7.50;98527.00;;;;4941941;28;87086;-68
2022/03/06 03:32:16;;;;;;;10.50;7.40;;;-6.60;99.90;-7.60;98522.00;;;;4941666;28;88581;-68
2022/03/06 03:34:42;;;;;;;10.82;7.68;;;-6.70;99.90;-7.50;98526.00;;;;4942110;28;87662;-61
2022/03/06 03:37:08;;;;;;;9.95;7.53;;;-6.70;99.90;-7.50;98514.00;;;;4941939;28;87128;-61
2022/03/06 03:39:34;;;;;;;12.80;7.85;;;-6.60;99.90;-7.40;98515.00;;;;4942707;28;86688;-67
2022/03/06 03:42:01;;;;;;;11.93;7.40;;;-6.50;99.90;-7.40;98517.00;;;;4942465;28;87842;-68
2022/03/06 03:44:27;;;;;;;12.32;8.25;;;-6.50;99.90;-7.40;98512.00;;;;4942703;28;87439;-69
2022/03/06 03:46:53;;;;;;;12.65;8.35;;;-6.50;99.90;-7.50;98511.00;;;;4941121;28;88003;-61
2022/03/06 03:49:19;;;;;;;16.52;9.60;;;-6.60;99.90;-7.60;98514.00;;;;4941839;28;87375;-61
2022/03/06 03:51:45;;;;;;;15.13;9.60;;;-6.70;99.90;-7.70;98506.00;;;;4940881;28;90248;-68
2022/03/06 03:54:13;;;;;;;17.63;10.30;;;-6.80;99.90;-7.80;98506.00;;;;4942542;28;87327;-61
2022/03/06 03:56:39;;;;;;;14.85;10.27;;;-6.90;99.90;-7.90;98497.00;;;;4939631;28;87059;-61
2022/03/06 03:59:05;;;;;;;18.05;10.50;;;-7.00;99.90;-7.80;98505.00;;;;4942146;28;87197;-70
2022/03/06 04:01:32;;;;;;;14.75;9.73;;;-7.00;99.90;-7.80;98511.00;;;;4943586;28;88947;-62
2022/03/06 04:03:58;;;;;;;13.18;9.00;;;-7.00;99.90;-7.90;98494.00;;;;4941731;28;87304;-62
2022/03/06 04:06:25;;;;;;;13.70;9.52;;;-7.00;99.90;-7.90;98499.00;;;;4941579;28;87236;-61
2022/03/06 04:08:51;;;;;;;14.07;10.27;;;-7.00;99.90;-8.00;98503.00;;;;4925367;28;87026;-61
2022/03/06 04:11:17;;;;;;;13.25;9.52;;;-7.10;99.90;-8.00;98493.00;;;;4941660;28;89632;-62
2022/03/06 04:13:44;;;;;;;14.02;9.95;;;-7.10;99.90;-8.00;98496.00;;;;4942670;28;87456;-61
2022/03/06 04:16:10;;;;;;;13.05;9.52;;;-7.10;99.90;-7.80;98493.00;;;;4941367;28;87097;-68
2022/03/06 04:18:37;;;;;;;15.63;9.43;;;-7.10;99.90;-7.60;98486.00;;;;4943111;28;87229;-62
2022/03/06 04:21:03;;;;;;;12.00;9.57;;;-7.00;99.90;-7.30;98497.00;;;;4942527;28;88000;-62
2022/03/06 04:23:29;;;;;;;17.67;10.43;;;-6.90;99.90;-7.10;98486.00;;;;4938374;28;88539;-70
2022/03/06 04:25:56;;;;;;;11.45;9.02;;;-6.80;99.90;-6.80;98480.00;;;;4924065;28;87077;-67
2022/03/06 04:28:22;;;;;;;11.45;8.95;;;-6.60;99.90;-6.60;98482.00;;;;4926393;28;86672;-62
2022/03/06 04:30:48;;;;;;;13.90;8.43;;;-6.50;99.90;-6.40;98490.00;;;;4941422;28;87707;-69
2022/03/06 04:33:15;;;;;;;10.77;7.82;;;-6.30;99.90;-6.30;98482.00;;;;4942058;28;88767;-69
2022/03/06 04:35:41;;;;;;;16.67;8.32;;;-6.30;99.90;-6.40;98490.00;;;;4924086;28;88320;-67
2022/03/06 04:38:08;;;;;;;10.35;7.07;;;-6.20;99.90;-6.00;98477.00;;;;4942505;28;87189;-71
2022/03/06 04:40:34;;;;;;;13.63;8.15;;;-6.10;99.90;-5.80;98485.00;;;;4942002;28;87693;-68
2022/03/06 04:43:01;;;;;;;15.18;8.75;;;-6.00;99.90;-5.50;98478.00;;;;4941227;28;90092;-64
2022/03/06 04:45:27;;;;;;;12.85;7.80;;;-5.80;99.90;-5.30;98475.00;;;;4941172;28;86946;-68
2022/03/06 04:47:53;;;;;;;12.70;7.40;;;-5.70;99.90;-5.20;98478.00;;;;4940695;28;86967;-69
2022/03/06 04:50:20;;;;;;;11.63;7.90;;;-5.70;99.90;-5.20;98484.00;;;;4941814;28;88151;-62
2022/03/06 04:52:46;;;;;;;12.77;8.07;;;-5.70;99.90;-5.10;98469.00;;;;4940865;28;87387;-69
2022/03/06 04:55:12;;;;;;;13.82;7.90;;;-5.60;99.90;-5.00;98470.00;;;;4941337;28;87239;-69
2022/03/06 04:57:39;;;;;;;11.38;7.00;;;-5.50;99.90;-5.00;98459.00;;;;4941375;28;87257;-69
2022/03/06 05:00:06;;;;;;;13.07;7.32;;;-5.40;99.90;-4.90;98466.00;;;;4940662;28;89010;-61
2022/03/06 05:02:32;;;;;;;9.77;7.25;;;-5.40;99.90;-4.80;98474.00;;;;4936342;28;88481;-61
2022/03/06 05:04:59;;;;;;;11.82;7.85;;;-5.30;99.90;-4.80;98458.00;;;;4940652;28;87453;-68
2022/03/06 05:07:25;;;;;;;10.93;7.07;;;-5.30;99.90;-4.80;98461.00;;;;4941381;28;87193;-66
2022/03/06 05:09:51;;;;;;;11.90;7.60;;;-5.20;99.90;-5.20;98470.00;;;;4940584;28;87639;-68
2022/03/06 05:12:18;;;;;;;11.25;7.50;;;-5.30;99.70;-5.70;98461.00;;;;4941114;28;87252;-68
2022/03/06 05:14:44;;;;;;;11.48;7.43;;;-5.40;99.80;-5.90;98461.00;;;;4940178;28;86966;-69
2022/03/06 05:17:11;;;;;;;11.20;6.90;;;-5.50;99.90;-6.10;98445.00;;;;4907993;28;86685;-69
2022/03/06 05:19:37;;;;;;;12.90;6.93;;;-5.60;99.90;-6.20;98464.00;;;;4939910;28;87073;-61
2022/03/06 05:22:03;;;;;;;12.13;7.47;;;-5.50;99.90;-6.30;98453.00;;;;4939153;28;90382;-71
2022/03/06 05:24:30;;;;;;;13.75;7.30;;;-5.60;99.90;-6.30;98451.00;;;;4937562;28;87964;-63
2022/03/06 05:26:56;;;;;;;14.65;7.93;;;-5.60;99.90;-6.30;98456.00;;;;4942234;28;87348;-62
2022/03/06 05:29:22;;;;;;;17.42;7.47;;;-5.60;99.90;-6.30;98451.00;;;;4940575;28;88611;-69
2022/03/06 05:31:49;;;;;;;17.70;7.53;;;-5.50;99.90;-6.30;98459.00;;;;4939626;28;89003;-69
2022/03/06 05:34:15;;;;;;;19.75;7.35;;;-5.60;99.90;-6.30;98451.00;;;;4941004;28;87021;-62
2022/03/06 05:36:41;;;;;;;19.20;7.88;;;-5.50;99.90;-6.20;98444.00;;;;4939970;28;87221;-68
2022/03/06 05:39:08;;;;;;;17.52;6.78;;;-5.50;99.90;-6.20;98445.00;;;;4924466;28;87552;-62
2022/03/06 05:41:34;;;;;;;18.70;7.82;;;-5.40;99.90;-6.20;98447.00;;;;4941506;28;89652;-69
2022/03/06 05:44:00;;;;;;;12.70;6.78;;;-5.40;99.90;-6.20;98449.00;;;;4909038;28;86948;-69
2022/03/06 05:46:27;;;;;;;13.90;6.97;;;-5.40;99.90;-6.10;98439.00;;;;4941469;28;87107;-62
2022/03/06 05:48:53;;;;;;;9.68;6.60;;;-5.30;99.90;-6.10;98450.00;;;;4940702;28;88812;-69
2022/03/06 05:51:19;;;;;;;14.90;6.97;;;-5.40;99.70;-6.10;98437.00;;;;4939734;28;91062;-69
2022/03/06 05:53:45;;;;;;;13.05;6.80;;;-5.30;99.80;-6.00;98438.00;;;;4942093;28;86952;-70
2022/03/06 05:56:12;;;;;;;15.52;7.00;;;-5.30;99.60;-5.90;98454.00;;;;4942301;28;87318;-69
2022/03/06 05:58:38;;;;;;;14.73;7.10;;;-5.20;99.50;-5.90;98427.00;;;;4943164;28;87384;-62
2022/03/06 06:01:05;;;;;;;12.20;6.90;;;-5.10;99.40;-5.80;98435.00;;;;4926795;28;88572;-67
2022/03/06 06:03:31;;;;;;;13.60;6.60;;;-5.10;99.20;-5.70;98433.00;;;;4943721;28;87220;-62
2022/03/06 06:05:58;;;;;;;13.90;6.40;;;-4.90;98.90;-5.60;98440.00;;;;4944637;28;86701;-70
2022/03/06 06:08:24;;;;;;;12.73;5.95;;;-4.90;98.80;-5.50;98433.00;;;;4943699;28;87648;-69
2022/03/06 06:10:50;;;;;;;10.40;5.88;;;-4.80;98.50;-5.40;98421.00;;;;4944997;28;87586;-61
2022/03/06 06:13:19;;;;;;;15.13;6.13;;;-4.70;98.40;-5.30;98427.00;;;;4910974;28;88657;-61
2022/03/06 06:15:45;;;;;;;11.73;6.03;;;-4.60;98.00;-5.20;98433.00;;;;4940865;28;87242;-61
2022/03/06 06:18:11;;;;;;;13.23;5.50;;;-4.50;98.00;-5.20;98438.00;;;;4942239;28;87630;-61
2022/03/06 06:20:38;;;;;;;14.48;6.43;;;-4.50;97.60;-5.10;98429.00;;;;4942151;28;87135;-61
2022/03/06 06:23:04;;;;;;;15.63;6.45;;;-4.40;97.70;-5.00;98432.00;;;;4940684;28;86985;-62
2022/03/06 06:25:31;;;;;;;10.80;6.18;;;-4.30;97.50;-4.90;98438.00;;;;4941595;28;87813;-61
2022/03/06 06:27:57;;;;;;;10.07;6.45;;;-4.20;97.20;-4.80;98439.00;;;;4941248;28;87705;-61
2022/03/06 06:30:23;;;;;;;12.73;6.20;;;-4.10;96.70;-4.70;98428.00;;;;4941422;28;88690;-61
2022/03/06 06:32:49;;;;;;;9.40;5.47;;;-4.00;96.70;-4.60;98428.00;;;;4942218;28;87140;-62
2022/03/06 06:35:17;;;;;;;11.10;5.38;;;-3.90;96.50;-4.50;98429.00;;;;4940796;28;87350;-61
2022/03/06 06:37:45;;;;;;;12.25;5.57;;;-3.80;96.30;-4.40;98428.00;;;;4940678;28;88665;-62
2022/03/06 06:40:11;;;;;;;13.07;4.82;;;-3.70;96.10;-4.30;98419.00;;;;4938783;28;88098;-61
2022/03/06 06:42:38;;;;;;;9.32;5.63;;;-3.60;95.70;-4.20;98436.00;;;;4942628;28;87684;-61
2022/03/06 06:45:04;;;;;;;13.75;5.93;;;-3.60;95.50;-4.20;98430.00;;;;4941745;28;87132;-61
2022/03/06 06:47:30;;;;;;;14.57;5.22;;;-3.60;95.40;-4.20;98433.00;;;;4940001;28;88398;-62
2022/03/06 06:49:56;;;;;;;13.35;5.00;;;-3.50;95.50;-4.10;98417.00;;;;4941833;28;87244;-61
2022/03/06 06:52:23;;;;;;;11.57;4.90;;;-3.50;95.50;-4.00;98410.00;;;;4940550;28;87245;-60
2022/03/06 06:54:50;;;;;;;10.23;5.55;;;-3.40;95.50;-4.00;98400.00;;;;4942408;28;86338;-62
2022/03/06 06:57:16;;;;;;;10.02;4.90;;;-3.30;95.20;-3.90;98404.00;;;;4940358;28;87856;-61
2022/03/06 06:59:42;;;;;;;11.88;4.88;;;-3.30;95.30;-3.80;98405.00;;;;4941213;28;87705;-60
2022/03/06 07:02:08;;;;;;;13.43;4.85;;;-3.20;94.80;-3.70;98407.00;;;;4939528;28;87998;-60
2022/03/06 07:04:34;;;;;;;10.35;4.70;;;-3.10;94.70;-3.70;98397.00;;;;4941343;28;87240;-61
2022/03/06 07:07:00;;;;;;;11.65;4.78;;;-3.10;94.40;-3.70;98400.00;;;;4940987;28;87675;-60
2022/03/06 07:09:26;;;;;;;14.48;5.07;;;-3.10;94.20;-3.60;98386.00;;;;4940749;28;87417;-61
2022/03/06 07:11:52;;;;;;;11.45;5.25;;;-3.00;94.30;-3.50;98397.00;;;;4942542;28;87280;-62
2022/03/06 07:14:18;;;;;;;9.32;4.95;;;-2.90;94.10;-3.40;98385.00;;;;4941593;28;86847;-61
2022/03/06 07:16:45;;;;;;;13.23;4.95;;;-2.80;94.10;-3.40;98381.00;;;;4941144;28;87294;-61
2022/03/06 07:19:12;;;;;;;13.52;4.90;;;-2.80;93.70;-3.30;98388.00;;;;4942931;28;87495;-61
2022/03/06 07:21:41;;;;;;;8.48;4.05;;;-2.70;93.60;-3.30;98380.00;;;;4940671;28;87046;-60
2022/03/06 07:24:07;;;;;;;10.55;4.18;;;-2.70;93.50;-3.30;98367.00;;;;4936954;28;87030;-61
2022/03/06 07:26:33;;;;;;;12.93;4.43;;;-2.70;93.40;-3.10;98379.00;;;;4938857;28;88589;-61
2022/03/06 07:28:59;;;;;;;13.02;4.88;;;-2.60;93.20;-3.10;98376.00;;;;4940446;28;88531;-62
2022/03/06 07:31:25;;;;;;;15.30;4.18;;;-2.50;93.20;-3.00;98383.00;;;;4940927;28;87350;-60
2022/03/06 07:33:51;;;;;;;12.95;4.40;;;-2.50;92.80;-2.90;98381.00;;;;4940860;28;87723;-60
2022/03/06 07:36:18;;;;;;;8.70;3.70;;;-2.40;92.90;-3.00;98372.00;;;;4940446;28;88063;-62
2022/03/06 07:38:44;;;;;;;7.97;3.70;;;-2.40;92.60;-3.00;98370.00;;;;4940698;28;87376;-62
2022/03/06 07:41:11;;;;;;;7.20;3.10;;;-2.50;92.80;-3.00;98372.00;;;;4941004;28;86939;-61
2022/03/06 07:43:37;;;;;;;7.90;2.72;;;-2.40;92.60;-2.80;98374.00;;;;4940441;28;86815;-61
2022/03/06 07:46:03;;;;;;;9.73;3.33;;;-2.30;92.40;-2.80;98361.00;;;;4939925;28;87707;-61
2022/03/06 07:48:29;;;;;;;7.05;2.60;;;-2.30;92.40;-2.80;98363.00;;;;4940592;28;87387;-61
2022/03/06 07:50:55;;;;;;;8.35;2.70;;;-2.40;92.20;-2.90;98363.00;;;;4939406;28;87983;-61
2022/03/06 07:53:21;;;;;;;6.97;2.80;;;-2.40;92.20;-3.00;98359.00;;;;4938801;28;88352;-62
2022/03/06 07:55:48;;;;;;;6.15;3.00;;;-2.40;92.10;-3.00;98377.00;;;;4937626;28;87079;-61
2022/03/06 07:58:14;;;;;;;7.25;3.30;;;-2.40;92.00;-2.80;98360.00;;;;4940587;28;87658;-61
2022/03/06 08:00:40;;;;;;;9.57;3.55;;;-2.30;92.00;-2.90;98361.00;;;;4940526;28;87418;-60
2022/03/06 08:03:06;;;;;;;10.90;3.25;;;-2.40;91.70;-2.90;98363.00;;;;4937684;28;87202;-61
2022/03/06 08:05:32;;;;;;;9.85;3.50;;;-2.40;91.50;-3.00;98357.00;;;;4939000;28;88238;-61
2022/03/06 08:07:58;;;;;;;9.15;2.90;;;-2.50;91.80;-2.80;98359.00;;;;4938781;28;87304;-60
2022/03/06 08:10:24;;;;;;;5.70;2.85;;;-2.40;91.50;-2.80;98366.00;;;;4940746;28;87331;-61
2022/03/06 08:12:51;;;;;;;7.97;3.20;;;-2.30;91.30;-2.90;98350.00;;;;4940165;28;87200;-62
2022/03/06 08:15:17;;;;;;;6.68;3.03;;;-2.40;91.30;-3.00;98345.00;;;;4939979;28;88297;-60
2022/03/06 08:17:43;;;;;;;7.97;3.45;;;-2.50;91.50;-2.90;98350.00;;;;4940405;28;88383;-60
2022/03/06 08:20:10;;;;;;;7.18;3.33;;;-2.40;91.60;-2.70;98343.00;;;;4942379;28;86913;-61
2022/03/06 08:22:36;;;;;;;10.00;3.53;;;-2.30;91.30;-2.60;98334.00;;;;4938799;28;87327;-61
2022/03/06 08:25:04;;;;;;;7.95;3.47;;;-2.20;91.50;-2.60;98347.00;;;;4939678;28;88168;-61
2022/03/06 08:27:32;;;;;;;7.38;3.17;;;-2.20;91.70;-2.60;98327.00;;;;4938650;28;87393;-62
2022/03/06 08:29:59;;;;;;;10.35;3.10;;;-2.20;91.40;-2.50;98320.00;;;;4938966;28;87551;-61
2022/03/06 08:32:25;;;;;;;14.25;3.55;;;-2.10;91.50;-2.50;98327.00;;;;4940264;28;86670;-61
2022/03/06 08:34:52;;;;;;;8.85;2.97;;;-2.00;92.10;-2.40;98322.00;;;;4940280;28;87735;-62
2022/03/06 08:37:19;;;;;;;9.07;3.58;;;-2.00;91.30;-2.40;98318.00;;;;4939457;28;87336;-62
2022/03/06 08:39:47;;;;;;;8.30;3.28;;;-1.90;91.10;-2.50;98317.00;;;;4939321;28;88458;-61
2022/03/06 08:42:14;;;;;;;6.18;2.35;;;-2.10;91.40;-2.40;98314.00;;;;4938430;28;87572;-63
2022/03/06 08:44:41;;;;;;;5.57;2.50;;;-2.00;91.40;-2.40;98309.00;;;;4937946;28;88286;-61
2022/03/06 08:47:08;;;;;;;8.10;2.45;;;-2.00;91.10;-2.50;98302.00;;;;4938315;28;87547;-62
2022/03/06 08:49:35;;;;;;;6.57;2.85;;;-2.10;91.20;-2.50;98287.00;;;;4937145;28;87139;-61
2022/03/06 08:52:01;;;;;;;7.30;2.15;;;-2.10;91.00;-2.50;98292.00;;;;4939530;28;87468;-61
2022/03/06 08:54:27;;;;;;;8.07;2.38;;;-2.10;91.00;-2.50;98294.00;;;;4938719;28;88144;-61
2022/03/06 08:56:54;;;;;;;9.25;2.53;;;-2.00;90.80;-2.50;98298.00;;;;4939334;28;87421;-61
2022/03/06 08:59:20;;;;;;;6.35;2.67;;;-2.00;90.70;-2.50;98286.00;;;;4940875;28;87027;-61
2022/03/06 09:01:47;;;;;;;6.05;2.33;;;-2.00;90.90;-2.40;98284.00;;;;4939528;28;87318;-61
2022/03/06 09:04:14;;;;;;;5.45;2.60;;;-2.00;90.60;-2.40;98291.00;;;;4939131;28;88615;-62
2022/03/06 09:06:41;;;;;;;7.70;2.00;;;-2.00;90.30;-2.40;98272.00;;;;4934745;28;88304;-61
2022/03/06 09:09:08;;;;;;;5.45;2.47;;;-2.00;90.30;-2.50;98268.00;;;;4938136;28;87458;-62
2022/03/06 09:11:34;;;;;;;8.73;2.75;;;-2.00;90.20;-2.50;98289.00;;;;4937726;28;87147;-62
2022/03/06 09:14:00;;;;;;;9.23;3.05;;;-2.00;90.30;-2.40;98261.00;;;;4939238;28;89645;-63
2022/03/06 09:16:27;;;;;;;10.63;3.40;;;-1.90;90.30;-2.20;98274.00;;;;4934845;28;88088;-62
2022/03/06 09:18:53;;;;;;;9.32;2.75;;;-1.70;90.40;-2.20;98260.00;;;;4936481;28;87323;-62
2022/03/06 09:21:19;;;;;;;8.15;2.70;;;-1.80;90.10;-2.20;98262.00;;;;4936386;28;87090;-63
2022/03/06 09:23:45;;;;;;;5.10;2.40;;;-1.70;90.20;-2.30;98266.00;;;;4938104;28;87696;-61
2022/03/06 09:26:11;;;;;;;7.65;2.40;;;-1.90;88.90;-2.20;98258.00;;;;4938557;28;87384;-61
2022/03/06 09:28:37;;;;;;;10.50;2.58;;;-1.80;89.40;-2.20;98249.00;;;;4921080;28;88018;-61
2022/03/06 09:31:04;;;;;;;8.13;2.78;;;-1.70;88.90;-2.10;98240.00;;;;4939128;28;87156;-61
2022/03/06 09:33:30;;;;;;;7.03;2.40;;;-1.60;88.60;-2.10;98254.00;;;;4940706;28;87369;-61
2022/03/06 09:35:56;;;;;;;5.38;2.17;;;-1.70;88.40;-2.10;98240.00;;;;4940932;28;87897;-62
2022/03/06 09:38:22;;;;;;;5.35;2.38;;;-1.70;88.70;-2.00;98243.00;;;;4940279;28;87100;-62
2022/03/06 09:40:49;;;;;;;6.22;2.25;;;-1.60;88.40;-1.90;98242.00;;;;4942449;28;87056;-62
2022/03/06 09:43:18;;;;;;;10.82;3.00;;;-1.50;88.30;-1.80;98231.00;;;;4943829;28;87642;-62
2022/03/06 09:45:47;;;;;;;9.25;2.40;;;-1.40;88.10;-1.60;98224.00;;;;4939447;28;87777;-62
2022/03/06 09:48:16;;;;;;;5.88;2.97;;;-1.20;87.20;-1.40;98226.00;;;;4941759;28;87333;-62
2022/03/06 09:50:44;;;;;;;6.40;2.30;;;-1.00;86.40;-1.30;98235.00;;;;4941162;28;87288;-62
2022/03/06 09:53:10;;;;;;;3.50;1.77;;;-1.00;84.40;-1.40;98220.00;;;;4937217;28;88379;-61
2022/03/06 09:55:36;;;;;;;6.10;1.75;;;-1.00;83.50;-1.50;98227.00;;;;4941973;28;87655;-61
2022/03/06 09:58:03;;;;;;;5.82;1.77;;;-1.10;83.70;-1.50;98222.00;;;;4942131;28;87355;-61
2022/03/06 10:00:29;;;;;;;5.15;1.80;;;-1.10;84.50;-1.30;98220.00;;;;4940712;28;87987;-61
2022/03/06 10:03:01;;;;;;;4.25;1.88;;;-1.00;84.30;-1.30;98230.00;;;;4942002;28;87597;-61
2022/03/06 10:05:39;;;;;;;4.75;2.28;;;-1.00;82.90;-1.30;98212.00;;;;4941829;28;87862;-61
2022/03/06 10:08:25;;;;;;;4.93;1.88;;;-0.90;82.70;-1.20;98223.00;;;;4942971;28;86956;-61
2022/03/06 10:11:01;;;;;;;6.40;2.00;;;-0.80;82.80;-1.20;98209.00;;;;4941509;28;86960;-62
2022/03/06 10:13:33;;;;;;;7.72;2.00;;;-0.80;83.00;-1.20;98193.00;;;;4942411;28;87476;-61
2022/03/06 10:16:19;;;;;;;3.60;1.60;;;-0.80;82.70;-1.10;98198.00;;;;4940787;28;87878;-61
2022/03/06 10:18:54;;;;;;;4.75;2.00;;;-0.70;82.00;-1.00;98195.00;;;;4940992;28;88002;-61
2022/03/06 10:21:36;;;;;;;5.43;2.00;;;-0.60;82.20;-0.90;98183.00;;;;4940486;28;87262;-62
2022/03/06 10:24:06;;;;;;;5.90;2.05;;;-0.50;81.80;-0.70;98186.00;;;;4940305;28;88137;-62
2022/03/06 10:26:35;;;;;;;6.93;2.63;;;-0.30;81.70;-0.50;98180.00;;;;4938811;28;88512;-62
2022/03/06 10:29:05;;;;;;;6.15;2.20;;;-0.20;80.70;-0.40;98182.00;;;;4942176;28;87476;-62
2022/03/06 10:31:34;;;;;;;8.77;2.38;;;-0.10;80.70;-0.40;98163.00;;;;4939337;28;87272;-62
2022/03/06 10:34:10;;;;;;;4.03;2.00;;;-0.10;80.60;-0.30;98170.00;;;;4941570;28;88260;-62
2022/03/06 10:36:41;;;;;;;5.95;1.88;;;0.00;81.30;-0.20;98174.00;;;;4938653;28;88559;-62
2022/03/06 10:39:17;;;;;;;13.55;2.13;;;0.10;80.10;-0.10;98161.00;;;;4942104;28;87294;-62
2022/03/06 10:41:50;;;;;;;8.90;2.20;;;0.10;80.60;-0.10;98161.00;;;;4941430;28;87895;-62
2022/03/06 10:44:18;;;;;;;6.72;2.13;;;0.20;80.00;-0.10;98142.00;;;;4936226;28;88769;-62
2022/03/06 10:47:04;;;;;;;6.45;2.05;;;0.20;80.40;0.00;98143.00;;;;4923498;28;89239;-62
2022/03/06 10:49:32;;;;;;;7.90;1.90;;;0.30;79.70;-0.10;98149.00;;;;4941037;28;87323;-62
2022/03/06 10:52:22;;;;;;;9.38;2.25;;;0.20;78.90;0.00;98138.00;;;;4939491;28;87030;-61
2022/03/06 10:54:54;;;;;;;6.85;1.90;;;0.30;80.60;0.00;98128.00;;;;4937834;28;88873;-63
2022/03/06 10:57:22;;;;;;;6.75;1.90;;;0.30;80.60;0.10;98122.00;;;;4923633;28;89163;-62
2022/03/06 10:59:50;;;;;;;4.95;1.92;;;0.30;79.40;0.10;98115.00;;;;4939277;28;87479;-61
2022/03/06 11:02:17;;;;;;;6.93;2.45;;;0.40;79.50;0.10;98119.00;;;;4939716;28;86640;-62
2022/03/06 11:04:53;;;;;;;4.88;2.45;;;0.30;79.30;0.10;98119.00;;;;4940113;28;87913;-62
2022/03/06 11:07:20;;;;;;;11.10;2.38;;;0.30;79.30;0.10;98109.00;;;;4941292;28;87763;-61